createdAt,value
2022-12-27T00:00:07.919Z,2.92
2022-12-27T00:02:40.661Z,2.95
2022-12-27T00:05:08.983Z,2.75
2022-12-27T00:07:35.725Z,3.10
2022-12-27T00:10:02.237Z,2.90
2022-12-27T00:12:29.663Z,2.70
2022-12-27T00:14:56.044Z,2.95
2022-12-27T00:17:22.471Z,2.95
2022-12-27T00:19:48.855Z,3.13
2022-12-27T00:22:15.224Z,3.10
2022-12-27T00:24:41.812Z,2.75
2022-12-27T00:27:08.218Z,3.30
2022-12-27T00:29:34.717Z,3.17
2022-12-27T00:32:01.360Z,2.90
2022-12-27T00:34:27.882Z,3.28
2022-12-27T00:36:54.313Z,3.28
2022-12-27T00:39:20.681Z,3.25
2022-12-27T00:41:47.135Z,3.58
2022-12-27T00:44:13.625Z,3.45
2022-12-27T00:46:40.008Z,3.20
2022-12-27T00:49:06.863Z,3.30
2022-12-27T00:51:33.274Z,3.38
2022-12-27T00:54:00.408Z,2.88
2022-12-27T00:56:29.325Z,2.63
2022-12-27T00:58:58.233Z,3.83
2022-12-27T01:01:28.026Z,3.72
2022-12-27T01:03:55.926Z,3.72
2022-12-27T01:06:25.770Z,3.17
2022-12-27T01:08:52.283Z,3.30
2022-12-27T01:11:19.112Z,3.20
2022-12-27T01:13:46.324Z,3.47
2022-12-27T01:16:20.169Z,3.97
2022-12-27T01:18:47.460Z,3.00
2022-12-27T01:21:17.662Z,3.35
2022-12-27T01:23:45.303Z,3.25
2022-12-27T01:26:14.969Z,3.03
2022-12-27T01:28:41.664Z,2.88
2022-12-27T01:31:13.457Z,3.00
2022-12-27T01:33:40.516Z,3.63
2022-12-27T01:36:11.826Z,3.20
2022-12-27T01:38:38.409Z,3.33
2022-12-27T01:41:25.642Z,3.13
2022-12-27T01:43:53.053Z,3.35
2022-12-27T01:46:19.457Z,2.97
2022-12-27T01:48:46.550Z,3.17
2022-12-27T01:51:14.015Z,3.00
2022-12-27T01:53:43.999Z,2.92
2022-12-27T01:56:31.268Z,3.30
2022-12-27T01:59:02.396Z,2.97
2022-12-27T02:01:40.028Z,2.75
2022-12-27T02:04:10.423Z,3.05
2022-12-27T02:06:39.253Z,3.10
2022-12-27T02:09:29.865Z,3.22
2022-12-27T02:11:57.899Z,3.08
2022-12-27T02:14:34.255Z,2.97
2022-12-27T02:17:04.590Z,2.83
2022-12-27T02:19:40.137Z,2.92
2022-12-27T02:22:31.305Z,2.60
2022-12-27T02:25:32.965Z,2.97
2022-12-27T02:28:11.227Z,3.08
2022-12-27T02:30:38.345Z,3.00
2022-12-27T02:33:13.751Z,2.92
2022-12-27T02:35:44.566Z,3.30
2022-12-27T02:38:16.001Z,3.35
2022-12-27T02:41:04.103Z,3.15
2022-12-27T02:43:50.402Z,3.15
2022-12-27T02:46:44.059Z,3.03
2022-12-27T02:49:50.480Z,3.17
2022-12-27T02:53:07.978Z,3.10
2022-12-27T02:56:12.055Z,3.30
2022-12-27T02:59:09.685Z,2.78
2022-12-27T03:02:05.653Z,3.72
2022-12-27T03:04:54.064Z,2.97
2022-12-27T03:07:47.457Z,2.72
2022-12-27T03:10:45.246Z,3.67
2022-12-27T03:13:35.149Z,3.92
2022-12-27T03:16:18.281Z,2.90
2022-12-27T03:18:56.549Z,2.80
2022-12-27T03:21:55.854Z,2.72
2022-12-27T03:24:46.817Z,3.13
2022-12-27T03:27:19.919Z,2.75
2022-12-27T03:30:11.346Z,3.20
2022-12-27T03:33:09.074Z,2.65
2022-12-27T03:35:43.641Z,2.72
2022-12-27T03:38:13.762Z,2.58
2022-12-27T03:41:16.222Z,2.35
2022-12-27T03:43:42.637Z,3.63
2022-12-27T03:46:38.277Z,3.13
2022-12-27T03:49:28.154Z,2.70
2022-12-27T03:52:21.027Z,2.65
2022-12-27T03:54:50.813Z,2.92
2022-12-27T03:57:20.796Z,2.90
2022-12-27T03:59:47.405Z,2.92
2022-12-27T04:02:14.167Z,3.35
2022-12-27T04:04:40.957Z,2.95
2022-12-27T04:07:07.671Z,2.60
2022-12-27T04:09:52.503Z,2.80
2022-12-27T04:12:37.302Z,2.83
2022-12-27T04:15:22.608Z,3.25
2022-12-27T04:18:08.090Z,2.47
2022-12-27T04:20:53.141Z,2.92
2022-12-27T04:23:38.064Z,2.58
2022-12-27T04:26:23.379Z,2.83
2022-12-27T04:29:08.864Z,2.63
2022-12-27T04:31:53.656Z,3.05
2022-12-27T04:34:38.586Z,2.90
2022-12-27T04:37:05.063Z,3.13
2022-12-27T04:39:32.320Z,2.78
2022-12-27T04:42:17.340Z,3.13
2022-12-27T04:45:02.243Z,3.05
2022-12-27T04:47:48.219Z,3.03
2022-12-27T04:51:13.465Z,2.92
2022-12-27T04:53:58.363Z,2.80
2022-12-27T04:56:24.910Z,2.72
2022-12-27T04:59:10.233Z,3.03
2022-12-27T05:01:55.630Z,3.17
2022-12-27T05:04:22.914Z,3.20
2022-12-27T05:06:49.661Z,2.70
2022-12-27T05:09:34.689Z,2.88
2022-12-27T05:12:19.473Z,2.75
2022-12-27T05:14:46.904Z,2.67
2022-12-27T05:17:13.515Z,3.10
2022-12-27T05:19:40.016Z,2.50
2022-12-27T05:22:25.100Z,2.83
2022-12-27T05:25:09.968Z,2.53
2022-12-27T05:27:37.092Z,2.78
2022-12-27T05:30:04.175Z,3.17
2022-12-27T05:32:30.568Z,2.80
2022-12-27T05:34:56.961Z,2.58
2022-12-27T05:37:23.334Z,2.90
2022-12-27T05:39:49.709Z,2.97
2022-12-27T05:42:16.665Z,3.10
2022-12-27T05:44:43.060Z,2.38
2022-12-27T05:47:09.734Z,2.67
2022-12-27T05:49:36.153Z,3.03
2022-12-27T05:52:02.678Z,3.00
2022-12-27T05:54:29.199Z,3.05
2022-12-27T05:56:55.627Z,2.83
2022-12-27T05:59:22.155Z,3.30
2022-12-27T06:01:49.102Z,3.00
2022-12-27T06:04:15.764Z,3.05
2022-12-27T06:06:42.241Z,3.00
2022-12-27T06:09:08.856Z,3.38
2022-12-27T06:11:35.308Z,2.65
2022-12-27T06:14:01.664Z,2.83
2022-12-27T06:16:28.070Z,3.00
2022-12-27T06:18:55.034Z,3.30
2022-12-27T06:21:22.089Z,2.80
2022-12-27T06:23:49.005Z,2.90
2022-12-27T06:26:17.133Z,2.78
2022-12-27T06:28:43.735Z,2.92
2022-12-27T06:31:10.646Z,3.10
2022-12-27T06:33:37.268Z,2.97
2022-12-27T06:36:12.677Z,3.17
2022-12-27T06:38:39.517Z,3.03
2022-12-27T06:41:08.328Z,3.67
2022-12-27T06:43:35.392Z,2.78
2022-12-27T06:46:04.748Z,3.05
2022-12-27T06:48:31.690Z,3.03
2022-12-27T06:50:58.395Z,3.28
2022-12-27T06:53:25.065Z,3.03
2022-12-27T06:55:51.448Z,2.88
2022-12-27T06:58:17.813Z,3.58
2022-12-27T07:00:44.302Z,2.95
2022-12-27T07:03:10.728Z,3.40
2022-12-27T07:05:38.030Z,2.90
2022-12-27T07:08:05.263Z,3.10
2022-12-27T07:10:31.734Z,3.97
2022-12-27T07:12:58.282Z,4.03
2022-12-27T07:15:24.707Z,4.47
2022-12-27T07:17:51.196Z,4.35
2022-12-27T07:20:17.600Z,3.63
2022-12-27T07:22:44.335Z,3.58
2022-12-27T07:25:10.746Z,3.90
2022-12-27T07:27:37.676Z,3.80
2022-12-27T07:30:06.173Z,3.92
2022-12-27T07:32:32.587Z,4.13
2022-12-27T07:34:59.755Z,4.10
2022-12-27T07:37:26.150Z,3.53
2022-12-27T07:39:52.583Z,3.20
2022-12-27T07:42:18.968Z,3.47
2022-12-27T07:44:45.757Z,4.28
2022-12-27T07:47:12.170Z,13.82
2022-12-27T07:49:38.636Z,13.88
2022-12-27T07:52:05.072Z,8.18
2022-12-27T07:54:31.694Z,4.38
2022-12-27T07:56:58.085Z,3.50
2022-12-27T07:59:24.747Z,3.47
2022-12-27T08:02:06.301Z,4.38
2022-12-27T08:04:35.736Z,5.68
2022-12-27T08:07:11.690Z,8.18
2022-12-27T08:09:40.691Z,4.20
2022-12-27T08:12:08.211Z,5.80
2022-12-27T08:14:35.004Z,7.13
2022-12-27T08:17:05.881Z,7.70
2022-12-27T08:19:32.401Z,6.82
2022-12-27T08:21:58.897Z,3.50
2022-12-27T08:24:25.456Z,3.45
2022-12-27T08:26:51.849Z,3.20
2022-12-27T08:29:18.595Z,3.50
2022-12-27T08:31:45.061Z,3.28
2022-12-27T08:34:11.747Z,3.85
2022-12-27T08:39:24.636Z,3.80
2022-12-27T08:41:53.909Z,4.75
2022-12-27T08:44:20.371Z,4.15
2022-12-27T08:46:47.218Z,4.15
2022-12-27T08:49:13.626Z,4.10
2022-12-27T08:51:41.395Z,4.43
2022-12-27T08:54:08.918Z,3.53
2022-12-27T08:56:35.676Z,4.18
2022-12-27T08:59:02.632Z,4.15
2022-12-27T09:01:29.157Z,3.70
2022-12-27T09:03:55.893Z,4.25
2022-12-27T09:06:23.882Z,3.90
2022-12-27T09:08:54.437Z,3.47
2022-12-27T09:11:23.770Z,3.55
2022-12-27T09:13:50.681Z,3.65
2022-12-27T09:16:20.029Z,3.80
2022-12-27T09:18:49.570Z,3.85
2022-12-27T09:21:17.512Z,3.60
2022-12-27T09:23:44.384Z,3.65
2022-12-27T09:26:12.130Z,3.78
2022-12-27T09:28:39.100Z,3.10
2022-12-27T09:31:06.446Z,3.85
2022-12-27T09:33:33.047Z,3.65
2022-12-27T09:36:08.136Z,5.60
2022-12-27T09:38:36.072Z,4.90
2022-12-27T09:41:07.058Z,14.15
2022-12-27T09:44:00.074Z,16.45
2022-12-27T09:46:48.493Z,9.63
2022-12-27T09:49:20.329Z,6.00
2022-12-27T09:51:57.981Z,3.00
2022-12-27T09:54:42.727Z,4.32
2022-12-27T09:57:20.652Z,5.10
2022-12-27T09:59:50.035Z,5.15
2022-12-27T10:02:23.974Z,4.05
2022-12-27T10:05:19.081Z,3.33
2022-12-27T10:08:01.623Z,5.50
2022-12-27T10:10:38.223Z,4.30
2022-12-27T10:13:23.064Z,4.00
2022-12-27T10:16:11.390Z,4.00
2022-12-27T10:19:04.137Z,3.45
2022-12-27T10:21:37.275Z,3.55
2022-12-27T10:24:20.667Z,3.38
2022-12-27T10:26:47.116Z,3.25
2022-12-27T10:29:32.818Z,3.28
2022-12-27T10:31:59.294Z,2.92
2022-12-27T10:34:26.165Z,3.47
2022-12-27T10:36:53.066Z,3.25
2022-12-27T10:39:32.274Z,3.05
2022-12-27T10:42:15.528Z,3.17
2022-12-27T10:44:41.977Z,2.85
2022-12-27T10:47:08.477Z,3.03
2022-12-27T10:49:36.185Z,3.33
2022-12-27T10:52:08.793Z,2.78
2022-12-27T10:54:48.700Z,3.08
2022-12-27T10:57:25.743Z,2.83
2022-12-27T11:00:22.450Z,2.58
2022-12-27T11:02:58.449Z,2.80
2022-12-27T11:05:31.325Z,2.97
2022-12-27T11:07:57.966Z,2.92
2022-12-27T11:10:27.802Z,3.08
2022-12-27T11:12:59.460Z,3.05
2022-12-27T11:15:29.537Z,3.42
2022-12-27T11:18:00.302Z,3.10
2022-12-27T11:20:44.660Z,3.80
2022-12-27T11:23:17.732Z,4.07
2022-12-27T11:25:54.828Z,4.80
2022-12-27T11:28:35.153Z,3.80
2022-12-27T11:31:05.937Z,4.82
2022-12-27T11:33:52.002Z,4.43
2022-12-27T11:36:28.725Z,4.07
2022-12-27T11:38:55.735Z,3.60
2022-12-27T11:41:48.903Z,3.75
2022-12-27T11:44:26.803Z,3.75
2022-12-27T11:46:59.493Z,3.72
2022-12-27T11:49:34.684Z,4.05
2022-12-27T11:52:43.245Z,3.72
2022-12-27T11:55:47.111Z,2.95
2022-12-27T11:58:38.497Z,3.05
2022-12-27T12:01:33.447Z,2.90
2022-12-27T12:04:16.483Z,2.92
2022-12-27T12:06:59.035Z,2.75
2022-12-27T12:09:37.446Z,2.80
2022-12-27T12:12:27.883Z,2.95
2022-12-27T12:15:22.666Z,2.42
2022-12-27T12:18:14.248Z,2.58
2022-12-27T12:21:24.520Z,2.28
2022-12-27T12:24:14.869Z,3.58
2022-12-27T12:27:10.428Z,2.88
2022-12-27T12:29:58.730Z,2.30
2022-12-27T12:32:35.863Z,3.00
2022-12-27T12:35:22.889Z,2.33
2022-12-27T12:38:04.391Z,2.35
2022-12-27T12:40:54.041Z,2.90
2022-12-27T12:43:33.228Z,2.67
2022-12-27T12:46:20.691Z,2.10
2022-12-27T12:48:47.036Z,3.60
2022-12-27T12:51:28.326Z,3.10
2022-12-27T12:54:21.154Z,3.30
2022-12-27T12:57:02.957Z,3.42
2022-12-27T12:59:57.597Z,4.95
2022-12-27T13:02:58.544Z,3.40
2022-12-27T13:05:46.203Z,2.97
2022-12-27T13:08:35.331Z,2.88
2022-12-27T13:11:27.652Z,3.72
2022-12-27T13:14:19.704Z,2.75
2022-12-27T13:16:58.188Z,3.45
2022-12-27T13:19:34.927Z,2.78
2022-12-27T13:22:12.441Z,3.00
2022-12-27T13:25:06.006Z,4.75
2022-12-27T13:27:47.888Z,3.10
2022-12-27T13:30:24.133Z,3.25
2022-12-27T13:33:03.126Z,3.65
2022-12-27T13:35:48.559Z,2.90
2022-12-27T13:38:49.372Z,3.47
2022-12-27T13:41:31.200Z,3.22
2022-12-27T13:44:00.391Z,2.60
2022-12-27T13:46:38.144Z,2.80
2022-12-27T13:49:36.452Z,2.80
2022-12-27T13:52:15.359Z,2.75
2022-12-27T13:55:12.901Z,2.80
2022-12-27T13:58:00.892Z,3.22
2022-12-27T14:00:41.027Z,3.28
2022-12-27T14:03:26.253Z,3.28
2022-12-27T14:06:14.411Z,2.88
2022-12-27T14:08:50.340Z,3.00
2022-12-27T14:11:37.134Z,2.75
2022-12-27T14:14:05.451Z,3.13
2022-12-27T14:16:35.864Z,3.03
2022-12-27T14:19:29.771Z,3.38
2022-12-27T14:22:10.860Z,3.03
2022-12-27T14:25:05.114Z,2.60
2022-12-27T14:28:21.930Z,2.75
2022-12-27T14:31:25.926Z,3.03
2022-12-27T14:34:11.118Z,3.53
2022-12-27T14:37:12.334Z,2.50
2022-12-27T14:39:56.887Z,2.70
2022-12-27T14:42:55.087Z,2.78
2022-12-27T14:45:56.970Z,3.60
2022-12-27T14:48:45.385Z,3.45
2022-12-27T14:52:00.705Z,5.30
2022-12-27T14:55:05.626Z,4.30
2022-12-27T14:58:07.659Z,4.15
2022-12-27T15:01:11.140Z,3.90
2022-12-27T15:04:03.943Z,3.85
2022-12-27T15:06:53.328Z,3.67
2022-12-27T15:09:33.587Z,3.08
2022-12-27T15:12:21.315Z,3.63
2022-12-27T15:14:55.043Z,3.08
2022-12-27T15:17:39.749Z,3.10
2022-12-27T15:20:24.874Z,3.08
2022-12-27T15:23:24.772Z,3.70
2022-12-27T15:26:00.862Z,3.55
2022-12-27T15:28:37.498Z,3.83
2022-12-27T15:31:26.533Z,3.58
2022-12-27T15:34:07.207Z,2.90
2022-12-27T15:36:41.628Z,3.20
2022-12-27T15:39:33.566Z,3.45
2022-12-27T15:42:33.043Z,3.20
2022-12-27T15:45:28.015Z,3.20
2022-12-27T15:48:03.526Z,3.08
2022-12-27T15:50:44.333Z,2.90
2022-12-27T15:53:35.597Z,3.55
2022-12-27T15:56:26.423Z,2.85
2022-12-27T15:59:34.892Z,2.58
2022-12-27T16:02:24.739Z,3.53
2022-12-27T16:05:02.571Z,3.08
2022-12-27T16:07:44.836Z,3.20
2022-12-27T16:10:30.117Z,3.08
2022-12-27T16:13:08.810Z,3.58
2022-12-27T16:15:44.904Z,3.33
2022-12-27T16:18:50.506Z,3.70
2022-12-27T16:21:36.635Z,3.90
2022-12-27T16:24:20.114Z,2.97
2022-12-27T16:26:52.938Z,2.97
2022-12-27T16:29:22.943Z,3.55
2022-12-27T16:31:51.441Z,3.25
2022-12-27T16:34:24.120Z,3.10
2022-12-27T16:36:53.428Z,3.22
2022-12-27T16:39:48.842Z,3.25
2022-12-27T16:42:18.757Z,3.13
2022-12-27T16:44:54.941Z,4.10
2022-12-27T16:47:44.414Z,3.13
2022-12-27T16:50:29.660Z,3.10
2022-12-27T16:53:05.140Z,3.92
2022-12-27T16:55:52.865Z,2.65
2022-12-27T16:58:32.267Z,3.47
2022-12-27T17:01:01.090Z,5.72
2022-12-27T17:03:36.786Z,3.05
2022-12-27T17:06:32.349Z,3.53
2022-12-27T17:09:08.882Z,3.42
2022-12-27T17:11:47.465Z,4.18
2022-12-27T17:14:31.571Z,3.97
2022-12-27T17:17:14.465Z,2.92
2022-12-27T17:20:01.078Z,2.78
2022-12-27T17:22:34.171Z,2.80
2022-12-27T17:25:02.321Z,3.05
2022-12-27T17:27:41.237Z,3.17
2022-12-27T17:30:32.183Z,3.15
2022-12-27T17:33:39.789Z,3.28
2022-12-27T17:36:40.262Z,3.35
2022-12-27T17:39:42.122Z,3.47
2022-12-27T17:42:55.144Z,3.45
2022-12-27T17:45:43.232Z,4.13
2022-12-27T17:48:21.740Z,4.15
2022-12-27T17:50:48.956Z,4.90
2022-12-27T17:53:37.736Z,4.80
2022-12-27T17:56:28.886Z,4.07
2022-12-27T17:59:25.657Z,3.28
2022-12-27T18:01:55.522Z,3.10
2022-12-27T18:04:25.687Z,3.13
2022-12-27T18:06:57.123Z,2.88
2022-12-27T18:09:34.275Z,3.08
2022-12-27T18:12:04.688Z,3.17
2022-12-27T18:14:33.784Z,3.65
2022-12-27T18:17:00.608Z,3.67
2022-12-27T18:19:31.389Z,3.80
2022-12-27T18:22:02.474Z,4.25
2022-12-27T18:24:33.395Z,3.80
2022-12-27T18:27:15.858Z,4.38
2022-12-27T18:29:42.840Z,3.92
2022-12-27T18:32:14.343Z,3.10
2022-12-27T18:34:54.419Z,3.42
2022-12-27T18:37:24.904Z,2.83
2022-12-27T18:39:54.884Z,3.20
2022-12-27T18:42:31.029Z,3.22
2022-12-27T18:45:02.423Z,3.20
2022-12-27T18:47:28.988Z,3.00
2022-12-27T18:49:59.529Z,3.70
2022-12-27T18:52:32.674Z,3.33
2022-12-27T18:55:08.176Z,3.63
2022-12-27T18:57:36.282Z,3.35
2022-12-27T19:00:17.708Z,3.40
2022-12-27T19:02:44.966Z,2.92
2022-12-27T19:05:25.197Z,3.45
2022-12-27T19:08:00.700Z,3.95
2022-12-27T19:10:29.484Z,4.22
2022-12-27T19:12:57.221Z,3.63
2022-12-27T19:15:28.491Z,3.63
2022-12-27T19:17:59.156Z,3.13
2022-12-27T19:20:29.071Z,3.53
2022-12-27T19:22:57.185Z,3.83
2022-12-27T19:25:33.283Z,3.28
2022-12-27T19:28:09.980Z,4.10
2022-12-27T19:30:41.595Z,2.92
2022-12-27T19:33:29.612Z,3.00
2022-12-27T19:35:56.773Z,3.10
2022-12-27T19:38:26.615Z,2.80
2022-12-27T19:41:02.841Z,2.58
2022-12-27T19:43:35.949Z,2.35
2022-12-27T19:46:02.411Z,2.33
2022-12-27T19:48:28.795Z,2.58
2022-12-27T19:50:55.431Z,2.47
2022-12-27T19:53:30.788Z,2.40
2022-12-27T19:55:58.212Z,2.03
2022-12-27T19:58:26.613Z,2.55
2022-12-27T20:00:53.104Z,2.78
2022-12-27T20:03:19.998Z,2.60
2022-12-27T20:06:14.193Z,2.78
2022-12-27T20:08:33.449Z,2.83
2022-12-27T20:11:01.354Z,2.30
2022-12-27T20:13:27.927Z,2.55
2022-12-27T20:15:56.423Z,2.65
2022-12-27T20:18:23.728Z,2.05
2022-12-27T20:20:51.343Z,2.40
2022-12-27T20:23:19.262Z,2.42
2022-12-27T20:25:48.174Z,2.10
2022-12-27T20:28:15.793Z,2.67
2022-12-27T20:30:44.158Z,2.53
2022-12-27T20:33:11.196Z,2.55
2022-12-27T20:35:37.884Z,2.20
2022-12-27T20:38:05.273Z,2.40
2022-12-27T20:40:31.750Z,2.75
2022-12-27T20:42:58.997Z,2.67
2022-12-27T20:45:25.465Z,2.33
2022-12-27T20:47:51.893Z,2.90
2022-12-27T20:50:18.811Z,2.35
2022-12-27T20:52:45.184Z,2.63
2022-12-27T20:55:12.669Z,2.67
2022-12-27T20:57:39.323Z,2.33
2022-12-27T21:00:08.300Z,2.67
2022-12-27T21:02:35.230Z,2.67
2022-12-27T21:05:01.796Z,2.67
2022-12-27T21:07:28.265Z,2.88
2022-12-27T21:09:55.256Z,2.58
2022-12-27T21:12:21.636Z,2.38
2022-12-27T21:14:49.863Z,3.00
2022-12-27T21:17:17.202Z,2.72
2022-12-27T21:19:43.810Z,3.05
2022-12-27T21:22:10.282Z,2.45
2022-12-27T21:24:36.757Z,2.60
2022-12-27T21:27:03.218Z,2.63
2022-12-27T21:29:29.618Z,2.65
2022-12-27T21:31:56.056Z,2.85
2022-12-27T21:34:22.760Z,2.53
2022-12-27T21:36:54.345Z,2.70
2022-12-27T21:39:21.439Z,2.40
2022-12-27T21:41:47.906Z,2.80
2022-12-27T21:44:14.440Z,2.50
2022-12-27T21:46:42.213Z,3.22
2022-12-27T21:49:12.360Z,2.75
2022-12-27T21:51:40.488Z,2.78
2022-12-27T21:54:07.571Z,3.17
2022-12-27T21:56:34.085Z,2.90
2022-12-27T21:59:02.916Z,2.53
2022-12-27T22:01:31.498Z,2.47
2022-12-27T22:04:17.776Z,2.42
2022-12-27T22:06:47.096Z,2.20
2022-12-27T22:09:14.235Z,1.95
2022-12-27T22:11:40.659Z,1.92
2022-12-27T22:14:07.138Z,2.05
2022-12-27T22:16:36.275Z,1.90
2022-12-27T22:19:05.546Z,2.20
2022-12-27T22:21:34.037Z,2.15
2022-12-27T22:24:01.854Z,2.30
2022-12-27T22:26:31.848Z,2.60
2022-12-27T22:28:58.652Z,2.08
2022-12-27T22:31:29.951Z,2.50
2022-12-27T22:33:56.515Z,2.80
2022-12-27T22:36:24.588Z,2.60
2022-12-27T22:38:53.572Z,2.40
2022-12-27T22:41:28.899Z,2.72
2022-12-27T22:44:00.657Z,2.45
2022-12-27T22:46:39.382Z,2.70
2022-12-27T22:49:15.426Z,2.53
2022-12-27T22:51:42.267Z,2.88
2022-12-27T22:54:08.640Z,2.45
2022-12-27T22:56:37.709Z,2.85
2022-12-27T22:59:16.301Z,3.03
2022-12-27T23:01:43.788Z,2.65
2022-12-27T23:04:12.382Z,2.60
2022-12-27T23:06:40.034Z,2.60
2022-12-27T23:09:07.500Z,2.88
2022-12-27T23:11:37.737Z,2.65
2022-12-27T23:14:09.198Z,2.97
2022-12-27T23:16:37.990Z,2.70
2022-12-27T23:19:05.349Z,2.65
2022-12-27T23:21:31.794Z,2.92
2022-12-27T23:23:58.307Z,2.20
2022-12-27T23:26:24.716Z,2.72
2022-12-27T23:28:53.154Z,2.72
2022-12-27T23:31:22.195Z,2.78
2022-12-27T23:33:49.174Z,2.28
2022-12-27T23:36:15.553Z,3.15
2022-12-27T23:38:42.899Z,2.38
2022-12-27T23:41:14.746Z,2.33
2022-12-27T23:43:57.196Z,2.50
2022-12-27T23:46:29.981Z,2.15
2022-12-27T23:48:58.110Z,2.45
2022-12-27T23:51:25.743Z,2.53
2022-12-27T23:53:52.694Z,2.42
2022-12-27T23:56:22.006Z,2.67
2022-12-27T23:58:50.061Z,2.83
